sensor_id;sensor_type;location;lat;lon;timestamp;temperature;humidity
21678;DHT22;11000;50.360;7.582;2022-12-16T00:01:49;-4.40;99.90
21678;DHT22;11000;50.360;7.582;2022-12-16T00:04:10;-4.20;99.90
21678;DHT22;11000;50.360;7.582;2022-12-16T00:06:32;-4.10;99.90
21678;DHT22;11000;50.360;7.582;2022-12-16T00:08:53;-4.10;99.90
21678;DHT22;11000;50.360;7.582;2022-12-16T00:11:13;-4.30;99.90
21678;DHT22;11000;50.360;7.582;2022-12-16T00:13:35;-4.30;99.90
21678;DHT22;11000;50.360;7.582;2022-12-16T00:15:57;-4.50;99.90
21678;DHT22;11000;50.360;7.582;2022-12-16T00:18:17;-4.40;99.90
21678;DHT22;11000;50.360;7.582;2022-12-16T00:20:47;-4.40;99.90
21678;DHT22;11000;50.360;7.582;2022-12-16T00:23:08;-4.40;99.90
21678;DHT22;11000;50.360;7.582;2022-12-16T00:25:29;-4.40;99.90
21678;DHT22;11000;50.360;7.582;2022-12-16T00:27:49;-4.60;99.90
21678;DHT22;11000;50.360;7.582;2022-12-16T00:30:10;-4.50;99.90
21678;DHT22;11000;50.360;7.582;2022-12-16T00:32:30;-4.50;99.90
21678;DHT22;11000;50.360;7.582;2022-12-16T00:34:51;-4.40;99.90
21678;DHT22;11000;50.360;7.582;2022-12-16T00:37:12;-4.40;99.90
21678;DHT22;11000;50.360;7.582;2022-12-16T00:39:33;-4.40;99.90
21678;DHT22;11000;50.360;7.582;2022-12-16T00:41:53;-4.50;99.90
21678;DHT22;11000;50.360;7.582;2022-12-16T00:44:14;-4.60;99.90
21678;DHT22;11000;50.360;7.582;2022-12-16T00:46:34;-4.40;99.90
21678;DHT22;11000;50.360;7.582;2022-12-16T00:48:55;-4.50;99.90
21678;DHT22;11000;50.360;7.582;2022-12-16T00:51:15;-4.40;99.90
21678;DHT22;11000;50.360;7.582;2022-12-16T00:53:36;-4.50;99.90
21678;DHT22;11000;50.360;7.582;2022-12-16T00:56:06;-4.60;99.90
21678;DHT22;11000;50.360;7.582;2022-12-16T00:58:26;-4.70;99.90
21678;DHT22;11000;50.360;7.582;2022-12-16T01:00:47;-4.60;99.90
21678;DHT22;11000;50.360;7.582;2022-12-16T01:03:10;-4.50;99.90
21678;DHT22;11000;50.360;7.582;2022-12-16T01:05:31;-4.50;99.90
21678;DHT22;11000;50.360;7.582;2022-12-16T01:07:52;-4.80;99.90
21678;DHT22;11000;50.360;7.582;2022-12-16T01:10:14;-4.80;99.90
21678;DHT22;11000;50.360;7.582;2022-12-16T01:12:35;-4.80;99.90
21678;DHT22;11000;50.360;7.582;2022-12-16T01:14:55;-4.90;99.90
21678;DHT22;11000;50.360;7.582;2022-12-16T01:17:16;-4.90;99.90
21678;DHT22;11000;50.360;7.582;2022-12-16T01:19:36;-4.80;99.90
21678;DHT22;11000;50.360;7.582;2022-12-16T01:21:57;-4.90;99.90
21678;DHT22;11000;50.360;7.582;2022-12-16T01:24:17;-4.80;99.90
21678;DHT22;11000;50.360;7.582;2022-12-16T01:26:38;-4.80;99.90
21678;DHT22;11000;50.360;7.582;2022-12-16T01:28:58;-4.70;99.90
21678;DHT22;11000;50.360;7.582;2022-12-16T01:31:20;-4.70;99.90
21678;DHT22;11000;50.360;7.582;2022-12-16T01:33:41;-5.00;99.90
21678;DHT22;11000;50.360;7.582;2022-12-16T01:36:03;-5.10;99.90
21678;DHT22;11000;50.360;7.582;2022-12-16T01:38:24;-5.10;99.90
21678;DHT22;11000;50.360;7.582;2022-12-16T01:40:45;-5.10;99.90
21678;DHT22;11000;50.360;7.582;2022-12-16T01:43:12;-5.10;99.90
21678;DHT22;11000;50.360;7.582;2022-12-16T01:45:34;-5.30;99.90
21678;DHT22;11000;50.360;7.582;2022-12-16T01:47:58;-5.40;99.90
21678;DHT22;11000;50.360;7.582;2022-12-16T01:50:19;-5.40;99.90
21678;DHT22;11000;50.360;7.582;2022-12-16T01:52:45;-5.20;99.90
21678;DHT22;11000;50.360;7.582;2022-12-16T01:55:13;-5.20;99.90
21678;DHT22;11000;50.360;7.582;2022-12-16T01:58:03;-5.50;99.90
21678;DHT22;11000;50.360;7.582;2022-12-16T02:00:24;-5.40;99.90
21678;DHT22;11000;50.360;7.582;2022-12-16T02:02:45;-5.40;99.90
21678;DHT22;11000;50.360;7.582;2022-12-16T02:05:07;-5.20;99.90
21678;DHT22;11000;50.360;7.582;2022-12-16T02:07:39;-5.10;99.90
21678;DHT22;11000;50.360;7.582;2022-12-16T02:10:00;-5.40;99.90
21678;DHT22;11000;50.360;7.582;2022-12-16T02:12:35;-5.50;99.90
21678;DHT22;11000;50.360;7.582;2022-12-16T02:15:14;-5.40;99.90
21678;DHT22;11000;50.360;7.582;2022-12-16T02:20:41;-5.40;99.90
21678;DHT22;11000;50.360;7.582;2022-12-16T02:28:51;-5.60;99.90
21678;DHT22;11000;50.360;7.582;2022-12-16T02:31:37;-5.50;99.90
21678;DHT22;11000;50.360;7.582;2022-12-16T02:34:12;-5.50;99.90
21678;DHT22;11000;50.360;7.582;2022-12-16T02:39:21;-5.60;99.90
21678;DHT22;11000;50.360;7.582;2022-12-16T02:42:05;-5.80;99.90
21678;DHT22;11000;50.360;7.582;2022-12-16T02:44:34;-5.80;99.90
21678;DHT22;11000;50.360;7.582;2022-12-16T02:46:59;-5.80;99.90
21678;DHT22;11000;50.360;7.582;2022-12-16T02:51:40;-5.40;99.90
21678;DHT22;11000;50.360;7.582;2022-12-16T02:54:01;-5.50;99.90
21678;DHT22;11000;50.360;7.582;2022-12-16T02:56:45;-5.40;99.90
21678;DHT22;11000;50.360;7.582;2022-12-16T02:59:23;-5.30;99.90
21678;DHT22;11000;50.360;7.582;2022-12-16T03:02:09;-5.20;99.90
21678;DHT22;11000;50.360;7.582;2022-12-16T03:04:43;-5.20;99.90
21678;DHT22;11000;50.360;7.582;2022-12-16T03:07:12;-5.30;99.90
21678;DHT22;11000;50.360;7.582;2022-12-16T03:09:35;-5.30;99.90
21678;DHT22;11000;50.360;7.582;2022-12-16T03:11:59;-5.20;99.90
21678;DHT22;11000;50.360;7.582;2022-12-16T03:14:24;-5.20;99.90
21678;DHT22;11000;50.360;7.582;2022-12-16T03:16:47;-5.20;99.90
21678;DHT22;11000;50.360;7.582;2022-12-16T03:19:09;-5.20;99.90
21678;DHT22;11000;50.360;7.582;2022-12-16T03:21:38;-5.20;99.90
21678;DHT22;11000;50.360;7.582;2022-12-16T03:24:05;-5.40;99.90
21678;DHT22;11000;50.360;7.582;2022-12-16T03:29:07;-5.40;99.90
21678;DHT22;11000;50.360;7.582;2022-12-16T03:31:46;-5.40;99.90
21678;DHT22;11000;50.360;7.582;2022-12-16T03:34:13;-5.60;99.90
21678;DHT22;11000;50.360;7.582;2022-12-16T03:36:36;-5.60;99.90
21678;DHT22;11000;50.360;7.582;2022-12-16T03:38:59;-5.50;99.90
21678;DHT22;11000;50.360;7.582;2022-12-16T03:41:22;-5.50;99.90
21678;DHT22;11000;50.360;7.582;2022-12-16T03:43:43;-5.60;99.90
21678;DHT22;11000;50.360;7.582;2022-12-16T03:46:05;-5.40;99.90
21678;DHT22;11000;50.360;7.582;2022-12-16T03:48:26;-5.40;99.90
21678;DHT22;11000;50.360;7.582;2022-12-16T03:50:47;-5.40;99.90
21678;DHT22;11000;50.360;7.582;2022-12-16T03:53:07;-5.40;99.90
21678;DHT22;11000;50.360;7.582;2022-12-16T03:55:28;-5.50;99.90
21678;DHT22;11000;50.360;7.582;2022-12-16T03:57:49;-5.50;99.90
21678;DHT22;11000;50.360;7.582;2022-12-16T04:00:10;-5.50;99.90
21678;DHT22;11000;50.360;7.582;2022-12-16T04:02:31;-5.40;99.90
21678;DHT22;11000;50.360;7.582;2022-12-16T04:04:51;-5.30;99.90
21678;DHT22;11000;50.360;7.582;2022-12-16T04:07:12;-5.30;99.90
21678;DHT22;11000;50.360;7.582;2022-12-16T04:09:44;-5.30;99.90
21678;DHT22;11000;50.360;7.582;2022-12-16T04:12:06;-5.30;99.90
21678;DHT22;11000;50.360;7.582;2022-12-16T04:14:46;-5.20;99.90
21678;DHT22;11000;50.360;7.582;2022-12-16T04:17:25;-5.20;99.90
21678;DHT22;11000;50.360;7.582;2022-12-16T04:20:04;-5.40;99.90
21678;DHT22;11000;50.360;7.582;2022-12-16T04:22:44;-5.60;99.90
21678;DHT22;11000;50.360;7.582;2022-12-16T04:25:26;-5.60;99.90
21678;DHT22;11000;50.360;7.582;2022-12-16T04:27:47;-5.80;99.90
21678;DHT22;11000;50.360;7.582;2022-12-16T04:30:08;-5.80;99.90
21678;DHT22;11000;50.360;7.582;2022-12-16T04:32:38;-5.80;99.90
21678;DHT22;11000;50.360;7.582;2022-12-16T04:35:18;-5.80;99.90
21678;DHT22;11000;50.360;7.582;2022-12-16T04:37:57;-5.90;99.90
21678;DHT22;11000;50.360;7.582;2022-12-16T04:40:36;-5.80;99.90
21678;DHT22;11000;50.360;7.582;2022-12-16T04:43:15;-5.60;99.90
21678;DHT22;11000;50.360;7.582;2022-12-16T04:45:54;-5.50;99.90
21678;DHT22;11000;50.360;7.582;2022-12-16T04:48:33;-5.40;99.90
21678;DHT22;11000;50.360;7.582;2022-12-16T04:51:12;-5.60;99.90
21678;DHT22;11000;50.360;7.582;2022-12-16T04:53:51;-5.70;99.90
21678;DHT22;11000;50.360;7.582;2022-12-16T04:56:30;-5.70;99.90
21678;DHT22;11000;50.360;7.582;2022-12-16T04:59:10;-5.80;99.90
21678;DHT22;11000;50.360;7.582;2022-12-16T05:01:49;-5.80;99.90
21678;DHT22;11000;50.360;7.582;2022-12-16T05:04:28;-5.70;99.90
21678;DHT22;11000;50.360;7.582;2022-12-16T05:07:07;-5.50;99.90
21678;DHT22;11000;50.360;7.582;2022-12-16T05:09:46;-5.50;99.90
21678;DHT22;11000;50.360;7.582;2022-12-16T05:12:25;-5.70;99.90
21678;DHT22;11000;50.360;7.582;2022-12-16T05:15:04;-5.80;99.90
21678;DHT22;11000;50.360;7.582;2022-12-16T05:17:43;-5.90;99.90
21678;DHT22;11000;50.360;7.582;2022-12-16T05:20:22;-5.80;99.90
21678;DHT22;11000;50.360;7.582;2022-12-16T05:23:02;-5.80;99.90
21678;DHT22;11000;50.360;7.582;2022-12-16T05:25:41;-6.00;99.90
21678;DHT22;11000;50.360;7.582;2022-12-16T05:28:21;-6.20;99.90
21678;DHT22;11000;50.360;7.582;2022-12-16T05:31:00;-6.20;99.90
21678;DHT22;11000;50.360;7.582;2022-12-16T05:33:39;-6.00;99.90
21678;DHT22;11000;50.360;7.582;2022-12-16T05:36:18;-5.80;99.90
21678;DHT22;11000;50.360;7.582;2022-12-16T05:38:57;-6.00;99.90
21678;DHT22;11000;50.360;7.582;2022-12-16T05:41:36;-6.10;99.90
21678;DHT22;11000;50.360;7.582;2022-12-16T05:44:16;-6.20;99.90
21678;DHT22;11000;50.360;7.582;2022-12-16T05:46:55;-6.10;99.90
21678;DHT22;11000;50.360;7.582;2022-12-16T05:49:34;-5.90;99.90
21678;DHT22;11000;50.360;7.582;2022-12-16T05:52:13;-6.00;99.90
21678;DHT22;11000;50.360;7.582;2022-12-16T05:54:52;-6.10;99.90
21678;DHT22;11000;50.360;7.582;2022-12-16T05:57:31;-6.00;99.90
21678;DHT22;11000;50.360;7.582;2022-12-16T06:00:10;-5.90;99.90
21678;DHT22;11000;50.360;7.582;2022-12-16T06:02:50;-5.90;99.90
21678;DHT22;11000;50.360;7.582;2022-12-16T06:05:29;-6.10;99.90
21678;DHT22;11000;50.360;7.582;2022-12-16T06:08:08;-6.10;99.90
21678;DHT22;11000;50.360;7.582;2022-12-16T06:10:47;-6.40;99.90
21678;DHT22;11000;50.360;7.582;2022-12-16T06:13:26;-6.20;99.90
21678;DHT22;11000;50.360;7.582;2022-12-16T06:16:05;-6.00;99.90
21678;DHT22;11000;50.360;7.582;2022-12-16T06:18:44;-6.10;99.90
21678;DHT22;11000;50.360;7.582;2022-12-16T06:21:24;-6.30;99.90
21678;DHT22;11000;50.360;7.582;2022-12-16T06:24:03;-6.30;99.90
21678;DHT22;11000;50.360;7.582;2022-12-16T06:26:42;-6.30;99.90
21678;DHT22;11000;50.360;7.582;2022-12-16T06:29:20;-6.20;99.90
21678;DHT22;11000;50.360;7.582;2022-12-16T06:32:00;-6.20;99.90
21678;DHT22;11000;50.360;7.582;2022-12-16T06:34:39;-6.10;99.90
21678;DHT22;11000;50.360;7.582;2022-12-16T06:37:18;-6.00;99.90
21678;DHT22;11000;50.360;7.582;2022-12-16T06:39:57;-6.00;99.90
21678;DHT22;11000;50.360;7.582;2022-12-16T06:42:40;-5.90;99.90
21678;DHT22;11000;50.360;7.582;2022-12-16T06:45:19;-6.00;99.90
21678;DHT22;11000;50.360;7.582;2022-12-16T06:47:58;-6.10;99.90
21678;DHT22;11000;50.360;7.582;2022-12-16T06:50:37;-6.20;99.90
21678;DHT22;11000;50.360;7.582;2022-12-16T06:53:16;-6.10;99.90
21678;DHT22;11000;50.360;7.582;2022-12-16T06:55:56;-6.20;99.90
21678;DHT22;11000;50.360;7.582;2022-12-16T06:58:35;-6.40;99.90
21678;DHT22;11000;50.360;7.582;2022-12-16T07:01:14;-6.60;99.90
21678;DHT22;11000;50.360;7.582;2022-12-16T07:03:53;-6.80;99.90
21678;DHT22;11000;50.360;7.582;2022-12-16T07:06:32;-6.60;99.90
21678;DHT22;11000;50.360;7.582;2022-12-16T07:09:11;-6.70;99.90
21678;DHT22;11000;50.360;7.582;2022-12-16T07:11:50;-6.80;99.90
21678;DHT22;11000;50.360;7.582;2022-12-16T07:14:29;-6.80;99.90
21678;DHT22;11000;50.360;7.582;2022-12-16T07:17:08;-6.80;99.90
21678;DHT22;11000;50.360;7.582;2022-12-16T07:19:47;-6.60;99.90
21678;DHT22;11000;50.360;7.582;2022-12-16T07:22:26;-6.70;99.90
21678;DHT22;11000;50.360;7.582;2022-12-16T07:25:05;-6.90;99.90
21678;DHT22;11000;50.360;7.582;2022-12-16T07:27:46;-6.70;99.90
21678;DHT22;11000;50.360;7.582;2022-12-16T07:30:25;-6.50;99.90
21678;DHT22;11000;50.360;7.582;2022-12-16T07:33:04;-6.80;99.90
21678;DHT22;11000;50.360;7.582;2022-12-16T07:35:43;-6.80;99.90
21678;DHT22;11000;50.360;7.582;2022-12-16T07:38:22;-6.70;99.90
21678;DHT22;11000;50.360;7.582;2022-12-16T07:41:03;-7.00;99.90
21678;DHT22;11000;50.360;7.582;2022-12-16T07:43:42;-7.20;99.90
21678;DHT22;11000;50.360;7.582;2022-12-16T07:46:21;-7.00;99.90
21678;DHT22;11000;50.360;7.582;2022-12-16T07:49:00;-6.70;99.90
21678;DHT22;11000;50.360;7.582;2022-12-16T07:51:39;-6.60;99.90
21678;DHT22;11000;50.360;7.582;2022-12-16T07:54:19;-6.50;99.90
21678;DHT22;11000;50.360;7.582;2022-12-16T07:56:58;-6.60;99.90
21678;DHT22;11000;50.360;7.582;2022-12-16T07:59:37;-6.70;99.90
21678;DHT22;11000;50.360;7.582;2022-12-16T08:02:16;-6.70;99.90
21678;DHT22;11000;50.360;7.582;2022-12-16T08:04:56;-6.60;99.90
21678;DHT22;11000;50.360;7.582;2022-12-16T08:07:38;-6.60;99.90
21678;DHT22;11000;50.360;7.582;2022-12-16T08:10:17;-6.50;99.90
21678;DHT22;11000;50.360;7.582;2022-12-16T08:13:04;-6.70;99.90
21678;DHT22;11000;50.360;7.582;2022-12-16T08:15:44;-6.80;99.90
21678;DHT22;11000;50.360;7.582;2022-12-16T08:18:23;-6.90;99.90
21678;DHT22;11000;50.360;7.582;2022-12-16T08:21:02;-6.90;99.90
21678;DHT22;11000;50.360;7.582;2022-12-16T08:23:41;-6.70;99.90
21678;DHT22;11000;50.360;7.582;2022-12-16T08:26:20;-6.60;99.90
21678;DHT22;11000;50.360;7.582;2022-12-16T08:29:00;-6.60;99.90
21678;DHT22;11000;50.360;7.582;2022-12-16T08:31:39;-6.70;99.90
21678;DHT22;11000;50.360;7.582;2022-12-16T08:34:18;-7.00;99.90
21678;DHT22;11000;50.360;7.582;2022-12-16T08:36:58;-6.80;99.90
21678;DHT22;11000;50.360;7.582;2022-12-16T08:39:36;-6.60;99.90
21678;DHT22;11000;50.360;7.582;2022-12-16T08:42:16;-6.50;99.90
21678;DHT22;11000;50.360;7.582;2022-12-16T08:44:55;-6.50;99.90
21678;DHT22;11000;50.360;7.582;2022-12-16T08:47:34;-6.50;99.90
21678;DHT22;11000;50.360;7.582;2022-12-16T08:50:13;-6.80;99.90
21678;DHT22;11000;50.360;7.582;2022-12-16T08:52:52;-7.00;99.90
21678;DHT22;11000;50.360;7.582;2022-12-16T08:55:31;-7.30;99.90
21678;DHT22;11000;50.360;7.582;2022-12-16T08:58:10;-7.20;99.90
21678;DHT22;11000;50.360;7.582;2022-12-16T09:00:49;-7.30;99.90
21678;DHT22;11000;50.360;7.582;2022-12-16T09:03:28;-7.40;99.90
21678;DHT22;11000;50.360;7.582;2022-12-16T09:06:07;-7.40;99.90
21678;DHT22;11000;50.360;7.582;2022-12-16T09:08:46;-7.20;99.90
21678;DHT22;11000;50.360;7.582;2022-12-16T09:11:25;-7.10;99.90
21678;DHT22;11000;50.360;7.582;2022-12-16T09:14:04;-7.00;99.90
21678;DHT22;11000;50.360;7.582;2022-12-16T09:16:43;-7.00;99.90
21678;DHT22;11000;50.360;7.582;2022-12-16T09:19:23;-7.00;99.90
21678;DHT22;11000;50.360;7.582;2022-12-16T09:22:02;-7.10;99.90
21678;DHT22;11000;50.360;7.582;2022-12-16T09:24:41;-6.90;99.90
21678;DHT22;11000;50.360;7.582;2022-12-16T09:27:20;-6.70;99.90
21678;DHT22;11000;50.360;7.582;2022-12-16T09:29:59;-6.60;99.90
21678;DHT22;11000;50.360;7.582;2022-12-16T09:32:42;-6.50;99.90
21678;DHT22;11000;50.360;7.582;2022-12-16T09:35:21;-6.60;99.90
21678;DHT22;11000;50.360;7.582;2022-12-16T09:38:00;-6.70;99.90
21678;DHT22;11000;50.360;7.582;2022-12-16T09:40:41;-6.60;99.90
21678;DHT22;11000;50.360;7.582;2022-12-16T09:46:46;-6.80;99.90
21678;DHT22;11000;50.360;7.582;2022-12-16T09:49:45;-6.80;99.90
21678;DHT22;11000;50.360;7.582;2022-12-16T09:52:25;-6.70;99.90
21678;DHT22;11000;50.360;7.582;2022-12-16T09:55:26;-6.50;99.90
21678;DHT22;11000;50.360;7.582;2022-12-16T09:58:09;-6.70;99.90
21678;DHT22;11000;50.360;7.582;2022-12-16T10:00:49;-7.00;99.90
21678;DHT22;11000;50.360;7.582;2022-12-16T10:03:33;-6.90;99.90
21678;DHT22;11000;50.360;7.582;2022-12-16T10:09:24;-6.60;99.90
21678;DHT22;11000;50.360;7.582;2022-12-16T10:12:11;-6.70;99.90
21678;DHT22;11000;50.360;7.582;2022-12-16T10:15:02;-6.70;99.90
21678;DHT22;11000;50.360;7.582;2022-12-16T10:17:45;-6.60;99.90
21678;DHT22;11000;50.360;7.582;2022-12-16T10:20:43;-6.30;99.90
21678;DHT22;11000;50.360;7.582;2022-12-16T10:23:41;-6.30;99.90
21678;DHT22;11000;50.360;7.582;2022-12-16T10:27:10;-6.30;99.90
21678;DHT22;11000;50.360;7.582;2022-12-16T10:29:51;-6.30;99.90
21678;DHT22;11000;50.360;7.582;2022-12-16T10:32:46;-6.20;99.90
21678;DHT22;11000;50.360;7.582;2022-12-16T10:35:40;-6.10;99.90
21678;DHT22;11000;50.360;7.582;2022-12-16T10:38:46;-6.10;99.90
21678;DHT22;11000;50.360;7.582;2022-12-16T10:41:31;-5.90;99.90
21678;DHT22;11000;50.360;7.582;2022-12-16T10:44:28;-6.00;99.90
21678;DHT22;11000;50.360;7.582;2022-12-16T10:47:10;-5.90;99.90
21678;DHT22;11000;50.360;7.582;2022-12-16T10:49:50;-5.90;99.90
21678;DHT22;11000;50.360;7.582;2022-12-16T10:52:31;-5.90;99.90
21678;DHT22;11000;50.360;7.582;2022-12-16T10:59:12;-6.20;99.90
21678;DHT22;11000;50.360;7.582;2022-12-16T11:01:32;-6.30;99.90
21678;DHT22;11000;50.360;7.582;2022-12-16T11:04:31;-6.30;99.90
21678;DHT22;11000;50.360;7.582;2022-12-16T11:07:39;-6.10;99.90
21678;DHT22;11000;50.360;7.582;2022-12-16T11:10:42;-6.00;99.90
21678;DHT22;11000;50.360;7.582;2022-12-16T11:13:31;-5.90;99.90
21678;DHT22;11000;50.360;7.582;2022-12-16T11:16:13;-6.20;99.90
21678;DHT22;11000;50.360;7.582;2022-12-16T11:18:53;-6.10;99.90
21678;DHT22;11000;50.360;7.582;2022-12-16T11:21:32;-6.20;99.90
21678;DHT22;11000;50.360;7.582;2022-12-16T11:24:19;-6.30;99.90
21678;DHT22;11000;50.360;7.582;2022-12-16T11:27:01;-6.40;99.90
21678;DHT22;11000;50.360;7.582;2022-12-16T11:29:57;-6.40;99.90
21678;DHT22;11000;50.360;7.582;2022-12-16T11:32:39;-6.20;99.90
21678;DHT22;11000;50.360;7.582;2022-12-16T11:35:27;-6.10;99.90
21678;DHT22;11000;50.360;7.582;2022-12-16T11:38:15;-5.80;99.90
21678;DHT22;11000;50.360;7.582;2022-12-16T11:40:58;-5.60;99.90
21678;DHT22;11000;50.360;7.582;2022-12-16T11:43:48;-5.30;99.90
21678;DHT22;11000;50.360;7.582;2022-12-16T11:46:29;-5.30;99.90
21678;DHT22;11000;50.360;7.582;2022-12-16T11:49:25;-5.50;99.90
21678;DHT22;11000;50.360;7.582;2022-12-16T11:52:07;-5.90;99.90
21678;DHT22;11000;50.360;7.582;2022-12-16T11:55:03;-5.70;99.90
21678;DHT22;11000;50.360;7.582;2022-12-16T11:57:55;-5.90;99.90
21678;DHT22;11000;50.360;7.582;2022-12-16T12:00:43;-6.00;99.90
21678;DHT22;11000;50.360;7.582;2022-12-16T12:03:24;-6.00;99.90
21678;DHT22;11000;50.360;7.582;2022-12-16T12:06:14;-6.00;99.90
21678;DHT22;11000;50.360;7.582;2022-12-16T12:20:30;-5.90;99.90
21678;DHT22;11000;50.360;7.582;2022-12-16T12:23:11;-5.80;99.90
21678;DHT22;11000;50.360;7.582;2022-12-16T12:26:10;-5.80;99.90
21678;DHT22;11000;50.360;7.582;2022-12-16T12:32:27;-5.30;99.90
21678;DHT22;11000;50.360;7.582;2022-12-16T12:35:38;-5.10;99.90
21678;DHT22;11000;50.360;7.582;2022-12-16T12:38:38;-5.00;99.90
21678;DHT22;11000;50.360;7.582;2022-12-16T12:44:59;-5.00;99.90
21678;DHT22;11000;50.360;7.582;2022-12-16T12:47:50;-4.80;99.90
21678;DHT22;11000;50.360;7.582;2022-12-16T12:50:43;-4.80;99.90
21678;DHT22;11000;50.360;7.582;2022-12-16T12:53:44;-5.40;99.90
21678;DHT22;11000;50.360;7.582;2022-12-16T12:56:48;-5.20;99.90
21678;DHT22;11000;50.360;7.582;2022-12-16T13:02:51;-5.00;99.90
21678;DHT22;11000;50.360;7.582;2022-12-16T13:05:33;-4.80;99.90
21678;DHT22;11000;50.360;7.582;2022-12-16T13:11:12;-4.60;99.90
21678;DHT22;11000;50.360;7.582;2022-12-16T13:13:51;-4.50;99.90
21678;DHT22;11000;50.360;7.582;2022-12-16T13:16:54;-4.50;99.90
21678;DHT22;11000;50.360;7.582;2022-12-16T13:22:30;-4.60;99.90
21678;DHT22;11000;50.360;7.582;2022-12-16T13:25:30;-4.60;99.90
21678;DHT22;11000;50.360;7.582;2022-12-16T13:28:20;-4.80;99.90
21678;DHT22;11000;50.360;7.582;2022-12-16T13:31:03;-4.60;99.90
21678;DHT22;11000;50.360;7.582;2022-12-16T13:33:50;-4.60;99.90
21678;DHT22;11000;50.360;7.582;2022-12-16T13:36:33;-4.50;99.90
21678;DHT22;11000;50.360;7.582;2022-12-16T13:39:22;-4.50;99.90
21678;DHT22;11000;50.360;7.582;2022-12-16T13:42:01;-4.60;99.90
21678;DHT22;11000;50.360;7.582;2022-12-16T13:53:17;-4.50;99.90
21678;DHT22;11000;50.360;7.582;2022-12-16T13:56:00;-4.40;99.90
21678;DHT22;11000;50.360;7.582;2022-12-16T13:58:53;-4.70;99.90
21678;DHT22;11000;50.360;7.582;2022-12-16T14:04:38;-4.80;99.90
21678;DHT22;11000;50.360;7.582;2022-12-16T14:07:20;-4.80;99.90
21678;DHT22;11000;50.360;7.582;2022-12-16T14:10:00;-4.70;99.90
21678;DHT22;11000;50.360;7.582;2022-12-16T14:12:51;-4.50;99.90
21678;DHT22;11000;50.360;7.582;2022-12-16T14:21:56;-4.80;99.90
21678;DHT22;11000;50.360;7.582;2022-12-16T14:24:37;-4.80;99.90
21678;DHT22;11000;50.360;7.582;2022-12-16T14:27:18;-4.70;99.90
21678;DHT22;11000;50.360;7.582;2022-12-16T14:29:58;-4.70;99.90
21678;DHT22;11000;50.360;7.582;2022-12-16T14:32:38;-4.70;99.90
21678;DHT22;11000;50.360;7.582;2022-12-16T14:35:20;-4.80;99.90
21678;DHT22;11000;50.360;7.582;2022-12-16T14:38:22;-4.90;99.90
21678;DHT22;11000;50.360;7.582;2022-12-16T14:41:02;-4.80;99.90
21678;DHT22;11000;50.360;7.582;2022-12-16T14:43:42;-4.70;99.90
21678;DHT22;11000;50.360;7.582;2022-12-16T14:46:29;-4.90;99.90
21678;DHT22;11000;50.360;7.582;2022-12-16T14:49:25;-4.80;99.90
21678;DHT22;11000;50.360;7.582;2022-12-16T14:52:26;-4.90;99.90
21678;DHT22;11000;50.360;7.582;2022-12-16T14:55:24;-4.80;99.90
21678;DHT22;11000;50.360;7.582;2022-12-16T14:58:04;-4.80;99.90
21678;DHT22;11000;50.360;7.582;2022-12-16T15:00:43;-4.80;99.90
21678;DHT22;11000;50.360;7.582;2022-12-16T15:03:38;-4.80;99.90
21678;DHT22;11000;50.360;7.582;2022-12-16T15:06:25;-4.70;99.90
21678;DHT22;11000;50.360;7.582;2022-12-16T15:09:07;-4.70;99.90
21678;DHT22;11000;50.360;7.582;2022-12-16T15:11:52;-4.90;99.90
21678;DHT22;11000;50.360;7.582;2022-12-16T15:14:34;-4.80;99.90
21678;DHT22;11000;50.360;7.582;2022-12-16T15:17:41;-4.80;99.90
21678;DHT22;11000;50.360;7.582;2022-12-16T15:20:24;-4.90;99.90
21678;DHT22;11000;50.360;7.582;2022-12-16T15:23:19;-4.90;99.90
21678;DHT22;11000;50.360;7.582;2022-12-16T15:25:58;-4.90;99.90
21678;DHT22;11000;50.360;7.582;2022-12-16T15:28:39;-4.80;99.90
21678;DHT22;11000;50.360;7.582;2022-12-16T15:31:29;-4.80;99.90
21678;DHT22;11000;50.360;7.582;2022-12-16T15:36:58;-5.00;99.90
21678;DHT22;11000;50.360;7.582;2022-12-16T15:39:40;-4.90;99.90
21678;DHT22;11000;50.360;7.582;2022-12-16T15:42:31;-4.90;99.90
21678;DHT22;11000;50.360;7.582;2022-12-16T15:45:26;-4.90;99.90
21678;DHT22;11000;50.360;7.582;2022-12-16T15:48:19;-4.90;99.90
21678;DHT22;11000;50.360;7.582;2022-12-16T15:50:59;-5.00;99.90
21678;DHT22;11000;50.360;7.582;2022-12-16T15:53:38;-5.00;99.90
21678;DHT22;11000;50.360;7.582;2022-12-16T15:56:21;-5.00;99.90
21678;DHT22;11000;50.360;7.582;2022-12-16T15:59:34;-5.00;99.90
21678;DHT22;11000;50.360;7.582;2022-12-16T16:02:20;-5.00;99.90
21678;DHT22;11000;50.360;7.582;2022-12-16T16:05:00;-5.00;99.90
21678;DHT22;11000;50.360;7.582;2022-12-16T16:07:39;-5.00;99.90
21678;DHT22;11000;50.360;7.582;2022-12-16T16:10:20;-5.00;99.90
21678;DHT22;11000;50.360;7.582;2022-12-16T16:13:00;-5.00;99.90
21678;DHT22;11000;50.360;7.582;2022-12-16T16:15:39;-5.10;99.90
21678;DHT22;11000;50.360;7.582;2022-12-16T16:18:18;-5.10;99.90
21678;DHT22;11000;50.360;7.582;2022-12-16T16:20:57;-5.10;99.90
21678;DHT22;11000;50.360;7.582;2022-12-16T16:23:35;-5.10;99.90
21678;DHT22;11000;50.360;7.582;2022-12-16T16:26:17;-5.10;99.90
21678;DHT22;11000;50.360;7.582;2022-12-16T16:28:57;-5.00;99.90
21678;DHT22;11000;50.360;7.582;2022-12-16T16:31:37;-5.00;99.90
21678;DHT22;11000;50.360;7.582;2022-12-16T16:34:16;-5.00;99.90
21678;DHT22;11000;50.360;7.582;2022-12-16T16:36:56;-5.00;99.90
21678;DHT22;11000;50.360;7.582;2022-12-16T16:39:35;-5.00;99.90
21678;DHT22;11000;50.360;7.582;2022-12-16T16:42:14;-5.00;99.90
21678;DHT22;11000;50.360;7.582;2022-12-16T16:44:54;-5.00;99.90
21678;DHT22;11000;50.360;7.582;2022-12-16T16:47:33;-5.00;99.90
21678;DHT22;11000;50.360;7.582;2022-12-16T16:50:15;-5.00;99.90
21678;DHT22;11000;50.360;7.582;2022-12-16T16:52:56;-5.10;99.90
21678;DHT22;11000;50.360;7.582;2022-12-16T16:55:36;-5.10;99.90
21678;DHT22;11000;50.360;7.582;2022-12-16T16:58:22;-5.00;99.90
21678;DHT22;11000;50.360;7.582;2022-12-16T17:01:03;-5.00;99.90
21678;DHT22;11000;50.360;7.582;2022-12-16T17:03:42;-5.00;99.90
21678;DHT22;11000;50.360;7.582;2022-12-16T17:06:21;-4.90;99.90
21678;DHT22;11000;50.360;7.582;2022-12-16T17:09:00;-4.90;99.90
21678;DHT22;11000;50.360;7.582;2022-12-16T17:11:40;-5.00;99.90
21678;DHT22;11000;50.360;7.582;2022-12-16T17:14:20;-4.90;99.90
21678;DHT22;11000;50.360;7.582;2022-12-16T17:16:59;-5.00;99.90
21678;DHT22;11000;50.360;7.582;2022-12-16T17:19:38;-5.00;99.90
21678;DHT22;11000;50.360;7.582;2022-12-16T17:22:18;-4.90;99.90
21678;DHT22;11000;50.360;7.582;2022-12-16T17:24:57;-4.90;99.90
21678;DHT22;11000;50.360;7.582;2022-12-16T17:27:36;-4.90;99.90
21678;DHT22;11000;50.360;7.582;2022-12-16T17:30:20;-4.90;99.90
21678;DHT22;11000;50.360;7.582;2022-12-16T17:33:00;-4.90;99.90
21678;DHT22;11000;50.360;7.582;2022-12-16T17:35:39;-5.00;99.90
21678;DHT22;11000;50.360;7.582;2022-12-16T17:38:18;-4.90;99.90
21678;DHT22;11000;50.360;7.582;2022-12-16T17:40:57;-4.90;99.90
21678;DHT22;11000;50.360;7.582;2022-12-16T17:43:36;-5.00;99.90
21678;DHT22;11000;50.360;7.582;2022-12-16T17:46:15;-5.00;99.90
21678;DHT22;11000;50.360;7.582;2022-12-16T17:48:56;-5.00;99.90
21678;DHT22;11000;50.360;7.582;2022-12-16T17:51:35;-5.00;99.90
21678;DHT22;11000;50.360;7.582;2022-12-16T17:54:14;-5.00;99.90